sensor_id;sensor_type;location;lat;lon;timestamp;temperature;humidity
45409;DHT22;31162;51.076;3.784;2023-03-15T00:00:46;5.70;99.90
45409;DHT22;31162;51.076;3.784;2023-03-15T00:03:12;5.80;99.90
45409;DHT22;31162;51.076;3.784;2023-03-15T00:05:42;5.80;99.90
45409;DHT22;31162;51.076;3.784;2023-03-15T00:08:08;5.70;99.90
45409;DHT22;31162;51.076;3.784;2023-03-15T00:10:33;5.70;99.90
45409;DHT22;31162;51.076;3.784;2023-03-15T00:12:59;5.40;99.90
45409;DHT22;31162;51.076;3.784;2023-03-15T00:15:25;5.20;99.90
45409;DHT22;31162;51.076;3.784;2023-03-15T00:17:51;5.10;99.90
45409;DHT22;31162;51.076;3.784;2023-03-15T00:20:16;4.90;99.90
45409;DHT22;31162;51.076;3.784;2023-03-15T00:22:44;4.90;99.90
45409;DHT22;31162;51.076;3.784;2023-03-15T00:25:10;5.00;99.90
45409;DHT22;31162;51.076;3.784;2023-03-15T00:27:36;5.00;99.90
45409;DHT22;31162;51.076;3.784;2023-03-15T00:30:02;5.10;99.90
45409;DHT22;31162;51.076;3.784;2023-03-15T00:32:28;5.30;99.90
45409;DHT22;31162;51.076;3.784;2023-03-15T00:34:54;5.50;99.90
45409;DHT22;31162;51.076;3.784;2023-03-15T00:37:20;5.70;99.90
45409;DHT22;31162;51.076;3.784;2023-03-15T00:39:47;5.60;99.90
45409;DHT22;31162;51.076;3.784;2023-03-15T00:42:13;5.70;99.90
45409;DHT22;31162;51.076;3.784;2023-03-15T00:44:45;5.70;99.90
45409;DHT22;31162;51.076;3.784;2023-03-15T00:47:13;5.70;99.90
45409;DHT22;31162;51.076;3.784;2023-03-15T00:49:40;5.70;99.90
45409;DHT22;31162;51.076;3.784;2023-03-15T00:52:06;5.70;99.90
45409;DHT22;31162;51.076;3.784;2023-03-15T00:54:32;5.70;99.90
45409;DHT22;31162;51.076;3.784;2023-03-15T00:56:59;5.70;99.90
45409;DHT22;31162;51.076;3.784;2023-03-15T00:59:26;5.80;99.90
45409;DHT22;31162;51.076;3.784;2023-03-15T01:01:52;5.80;99.90
45409;DHT22;31162;51.076;3.784;2023-03-15T01:04:18;5.80;99.90
45409;DHT22;31162;51.076;3.784;2023-03-15T01:06:43;5.90;99.90
45409;DHT22;31162;51.076;3.784;2023-03-15T01:09:09;5.80;99.90
45409;DHT22;31162;51.076;3.784;2023-03-15T01:11:34;5.80;99.90
45409;DHT22;31162;51.076;3.784;2023-03-15T01:14:01;5.80;99.90
45409;DHT22;31162;51.076;3.784;2023-03-15T01:16:29;5.90;99.90
45409;DHT22;31162;51.076;3.784;2023-03-15T01:18:55;5.90;99.90
45409;DHT22;31162;51.076;3.784;2023-03-15T01:21:22;5.90;99.90
45409;DHT22;31162;51.076;3.784;2023-03-15T01:23:48;5.90;99.90
45409;DHT22;31162;51.076;3.784;2023-03-15T01:26:15;5.90;99.90
45409;DHT22;31162;51.076;3.784;2023-03-15T01:28:41;5.90;99.90
45409;DHT22;31162;51.076;3.784;2023-03-15T01:31:17;5.90;99.90
45409;DHT22;31162;51.076;3.784;2023-03-15T01:33:43;5.90;99.90
45409;DHT22;31162;51.076;3.784;2023-03-15T01:36:10;6.00;99.90
45409;DHT22;31162;51.076;3.784;2023-03-15T01:38:36;6.10;99.90
45409;DHT22;31162;51.076;3.784;2023-03-15T01:41:01;6.20;99.90
45409;DHT22;31162;51.076;3.784;2023-03-15T01:43:28;6.10;99.90
45409;DHT22;31162;51.076;3.784;2023-03-15T01:48:39;6.10;99.90
45409;DHT22;31162;51.076;3.784;2023-03-15T01:57:18;6.10;99.90
45409;DHT22;31162;51.076;3.784;2023-03-15T02:00:02;6.00;99.90
45409;DHT22;31162;51.076;3.784;2023-03-15T02:02:32;6.10;99.90
45409;DHT22;31162;51.076;3.784;2023-03-15T02:05:06;6.10;99.90
45409;DHT22;31162;51.076;3.784;2023-03-15T02:07:37;6.00;99.90
45409;DHT22;31162;51.076;3.784;2023-03-15T02:10:06;6.00;99.90
45409;DHT22;31162;51.076;3.784;2023-03-15T02:12:35;5.90;99.90
45409;DHT22;31162;51.076;3.784;2023-03-15T02:15:04;5.90;99.90
45409;DHT22;31162;51.076;3.784;2023-03-15T02:17:45;5.80;99.90
45409;DHT22;31162;51.076;3.784;2023-03-15T02:20:24;5.70;99.90
45409;DHT22;31162;51.076;3.784;2023-03-15T02:23:00;5.60;99.90
45409;DHT22;31162;51.076;3.784;2023-03-15T02:25:47;5.60;99.90
45409;DHT22;31162;51.076;3.784;2023-03-15T02:28:17;5.60;99.90
45409;DHT22;31162;51.076;3.784;2023-03-15T02:30:44;5.60;99.90
45409;DHT22;31162;51.076;3.784;2023-03-15T02:33:27;5.60;99.90
45409;DHT22;31162;51.076;3.784;2023-03-15T02:35:55;5.60;99.90
45409;DHT22;31162;51.076;3.784;2023-03-15T02:38:30;5.60;99.90
45409;DHT22;31162;51.076;3.784;2023-03-15T02:40:55;5.70;99.90
45409;DHT22;31162;51.076;3.784;2023-03-15T02:43:24;5.80;99.90
45409;DHT22;31162;51.076;3.784;2023-03-15T02:45:52;5.80;99.90
45409;DHT22;31162;51.076;3.784;2023-03-15T02:48:18;5.80;99.90
45409;DHT22;31162;51.076;3.784;2023-03-15T02:50:44;5.80;99.90
45409;DHT22;31162;51.076;3.784;2023-03-15T02:53:10;5.80;99.90
45409;DHT22;31162;51.076;3.784;2023-03-15T02:55:36;5.80;99.90
45409;DHT22;31162;51.076;3.784;2023-03-15T02:58:02;5.80;99.90
45409;DHT22;31162;51.076;3.784;2023-03-15T03:00:28;5.70;99.90
45409;DHT22;31162;51.076;3.784;2023-03-15T03:02:54;5.70;99.90
45409;DHT22;31162;51.076;3.784;2023-03-15T03:05:20;5.70;99.90
45409;DHT22;31162;51.076;3.784;2023-03-15T03:07:46;5.80;99.90
45409;DHT22;31162;51.076;3.784;2023-03-15T03:10:15;5.70;99.90
45409;DHT22;31162;51.076;3.784;2023-03-15T03:12:41;5.70;99.90
45409;DHT22;31162;51.076;3.784;2023-03-15T03:15:08;5.70;99.90
45409;DHT22;31162;51.076;3.784;2023-03-15T03:17:34;5.70;99.90
45409;DHT22;31162;51.076;3.784;2023-03-15T03:20:09;5.70;99.90
45409;DHT22;31162;51.076;3.784;2023-03-15T03:22:40;5.70;99.90
45409;DHT22;31162;51.076;3.784;2023-03-15T03:25:07;5.60;99.90
45409;DHT22;31162;51.076;3.784;2023-03-15T03:27:36;5.60;99.90
45409;DHT22;31162;51.076;3.784;2023-03-15T03:30:04;5.50;99.90
45409;DHT22;31162;51.076;3.784;2023-03-15T03:32:30;5.30;99.90
45409;DHT22;31162;51.076;3.784;2023-03-15T03:34:56;5.30;99.90
45409;DHT22;31162;51.076;3.784;2023-03-15T03:37:22;5.30;99.90
45409;DHT22;31162;51.076;3.784;2023-03-15T03:39:47;5.20;99.90
45409;DHT22;31162;51.076;3.784;2023-03-15T03:42:13;5.10;99.90
45409;DHT22;31162;51.076;3.784;2023-03-15T03:44:39;5.00;99.90
45409;DHT22;31162;51.076;3.784;2023-03-15T03:47:05;5.00;99.90
45409;DHT22;31162;51.076;3.784;2023-03-15T03:49:31;4.90;99.90
45409;DHT22;31162;51.076;3.784;2023-03-15T03:51:57;4.80;99.90
45409;DHT22;31162;51.076;3.784;2023-03-15T03:54:24;4.80;99.90
45409;DHT22;31162;51.076;3.784;2023-03-15T03:56:50;4.80;99.90
45409;DHT22;31162;51.076;3.784;2023-03-15T03:59:16;4.70;99.90
45409;DHT22;31162;51.076;3.784;2023-03-15T04:01:42;4.90;99.90
45409;DHT22;31162;51.076;3.784;2023-03-15T04:04:08;4.90;99.90
45409;DHT22;31162;51.076;3.784;2023-03-15T04:06:33;4.80;99.90
45409;DHT22;31162;51.076;3.784;2023-03-15T04:08:59;4.90;99.90
45409;DHT22;31162;51.076;3.784;2023-03-15T04:11:27;4.80;99.90
45409;DHT22;31162;51.076;3.784;2023-03-15T04:13:53;4.60;99.90
45409;DHT22;31162;51.076;3.784;2023-03-15T04:16:19;4.40;99.90
45409;DHT22;31162;51.076;3.784;2023-03-15T04:18:45;4.40;99.90
45409;DHT22;31162;51.076;3.784;2023-03-15T04:21:10;4.40;99.90
45409;DHT22;31162;51.076;3.784;2023-03-15T04:23:37;4.30;99.90
45409;DHT22;31162;51.076;3.784;2023-03-15T04:26:03;4.20;99.90
45409;DHT22;31162;51.076;3.784;2023-03-15T04:28:30;4.00;99.90
45409;DHT22;31162;51.076;3.784;2023-03-15T04:30:56;4.10;99.90
45409;DHT22;31162;51.076;3.784;2023-03-15T04:33:29;4.20;99.90
45409;DHT22;31162;51.076;3.784;2023-03-15T04:35:56;4.30;99.90
45409;DHT22;31162;51.076;3.784;2023-03-15T04:38:22;4.40;99.90
45409;DHT22;31162;51.076;3.784;2023-03-15T04:40:51;4.20;99.90
45409;DHT22;31162;51.076;3.784;2023-03-15T04:43:19;4.20;99.90
45409;DHT22;31162;51.076;3.784;2023-03-15T04:45:46;4.20;99.90
45409;DHT22;31162;51.076;3.784;2023-03-15T04:48:11;4.20;99.90
45409;DHT22;31162;51.076;3.784;2023-03-15T04:50:37;4.20;99.90
45409;DHT22;31162;51.076;3.784;2023-03-15T04:53:03;4.10;99.90
45409;DHT22;31162;51.076;3.784;2023-03-15T04:55:28;3.90;99.90
45409;DHT22;31162;51.076;3.784;2023-03-15T04:57:54;3.70;99.90
45409;DHT22;31162;51.076;3.784;2023-03-15T05:00:21;3.60;99.90
45409;DHT22;31162;51.076;3.784;2023-03-15T05:02:47;3.50;99.90
45409;DHT22;31162;51.076;3.784;2023-03-15T05:05:20;3.40;99.90
45409;DHT22;31162;51.076;3.784;2023-03-15T05:07:46;3.40;99.90
45409;DHT22;31162;51.076;3.784;2023-03-15T05:10:12;3.30;99.90
45409;DHT22;31162;51.076;3.784;2023-03-15T05:12:38;3.40;99.90
45409;DHT22;31162;51.076;3.784;2023-03-15T05:15:04;3.40;99.90
45409;DHT22;31162;51.076;3.784;2023-03-15T05:17:30;3.30;99.90
45409;DHT22;31162;51.076;3.784;2023-03-15T05:19:58;3.40;99.90
45409;DHT22;31162;51.076;3.784;2023-03-15T05:22:26;3.30;99.90
45409;DHT22;31162;51.076;3.784;2023-03-15T05:24:52;3.20;99.90
45409;DHT22;31162;51.076;3.784;2023-03-15T05:27:21;3.30;99.90
45409;DHT22;31162;51.076;3.784;2023-03-15T05:29:46;3.30;99.90
45409;DHT22;31162;51.076;3.784;2023-03-15T05:32:12;3.50;99.90
45409;DHT22;31162;51.076;3.784;2023-03-15T05:34:38;3.50;99.90
45409;DHT22;31162;51.076;3.784;2023-03-15T05:37:04;3.30;99.90
45409;DHT22;31162;51.076;3.784;2023-03-15T05:39:29;3.20;99.90
45409;DHT22;31162;51.076;3.784;2023-03-15T05:41:59;3.10;99.90
45409;DHT22;31162;51.076;3.784;2023-03-15T05:44:25;3.20;99.90
45409;DHT22;31162;51.076;3.784;2023-03-15T05:46:51;3.20;99.90
45409;DHT22;31162;51.076;3.784;2023-03-15T05:49:16;2.90;99.90
45409;DHT22;31162;51.076;3.784;2023-03-15T05:51:42;2.90;99.90
45409;DHT22;31162;51.076;3.784;2023-03-15T05:54:08;2.90;99.90
45409;DHT22;31162;51.076;3.784;2023-03-15T05:56:34;3.00;99.90
45409;DHT22;31162;51.076;3.784;2023-03-15T05:58:59;2.90;99.90
45409;DHT22;31162;51.076;3.784;2023-03-15T06:01:27;3.00;99.90
45409;DHT22;31162;51.076;3.784;2023-03-15T06:03:53;3.00;99.90
45409;DHT22;31162;51.076;3.784;2023-03-15T06:06:18;2.90;99.90
45409;DHT22;31162;51.076;3.784;2023-03-15T06:08:44;2.90;99.90
45409;DHT22;31162;51.076;3.784;2023-03-15T06:11:10;2.80;99.90
45409;DHT22;31162;51.076;3.784;2023-03-15T06:13:35;2.90;99.90
45409;DHT22;31162;51.076;3.784;2023-03-15T06:16:01;3.00;99.90
45409;DHT22;31162;51.076;3.784;2023-03-15T06:18:27;3.10;99.90
45409;DHT22;31162;51.076;3.784;2023-03-15T06:20:53;3.20;99.90
45409;DHT22;31162;51.076;3.784;2023-03-15T06:23:18;3.40;99.90
45409;DHT22;31162;51.076;3.784;2023-03-15T06:25:44;3.50;99.90
45409;DHT22;31162;51.076;3.784;2023-03-15T06:28:10;3.60;99.90
45409;DHT22;31162;51.076;3.784;2023-03-15T06:30:35;3.80;99.90
45409;DHT22;31162;51.076;3.784;2023-03-15T06:33:01;4.00;99.90
45409;DHT22;31162;51.076;3.784;2023-03-15T06:35:27;4.10;99.90
45409;DHT22;31162;51.076;3.784;2023-03-15T06:37:53;4.20;99.90
45409;DHT22;31162;51.076;3.784;2023-03-15T06:40:19;4.90;99.90
45409;DHT22;31162;51.076;3.784;2023-03-15T06:42:45;5.50;99.90
45409;DHT22;31162;51.076;3.784;2023-03-15T06:45:10;5.20;99.90
45409;DHT22;31162;51.076;3.784;2023-03-15T06:47:36;5.00;99.90
45409;DHT22;31162;51.076;3.784;2023-03-15T06:50:03;5.30;99.90
45409;DHT22;31162;51.076;3.784;2023-03-15T06:52:29;6.70;99.90
45409;DHT22;31162;51.076;3.784;2023-03-15T06:54:55;8.20;99.90
45409;DHT22;31162;51.076;3.784;2023-03-15T06:57:20;9.40;99.90
45409;DHT22;31162;51.076;3.784;2023-03-15T06:59:46;10.30;99.90
45409;DHT22;31162;51.076;3.784;2023-03-15T07:02:16;11.10;99.90
45409;DHT22;31162;51.076;3.784;2023-03-15T07:04:43;10.30;99.90
45409;DHT22;31162;51.076;3.784;2023-03-15T07:07:12;9.70;99.90
45409;DHT22;31162;51.076;3.784;2023-03-15T07:09:39;10.90;99.90
45409;DHT22;31162;51.076;3.784;2023-03-15T07:12:06;12.70;99.90
45409;DHT22;31162;51.076;3.784;2023-03-15T07:14:33;13.50;99.90
45409;DHT22;31162;51.076;3.784;2023-03-15T07:16:59;13.70;99.90
45409;DHT22;31162;51.076;3.784;2023-03-15T07:19:24;13.10;99.90
45409;DHT22;31162;51.076;3.784;2023-03-15T07:21:50;14.10;99.90
45409;DHT22;31162;51.076;3.784;2023-03-15T07:24:16;16.00;99.90
45409;DHT22;31162;51.076;3.784;2023-03-15T07:26:42;17.70;99.90
45409;DHT22;31162;51.076;3.784;2023-03-15T07:29:07;19.10;99.90
45409;DHT22;31162;51.076;3.784;2023-03-15T07:31:33;20.10;99.90
45409;DHT22;31162;51.076;3.784;2023-03-15T07:34:00;21.00;99.90
45409;DHT22;31162;51.076;3.784;2023-03-15T07:36:26;21.80;97.50
45409;DHT22;31162;51.076;3.784;2023-03-15T07:38:51;22.20;96.30
45409;DHT22;31162;51.076;3.784;2023-03-15T07:41:17;22.90;94.50
45409;DHT22;31162;51.076;3.784;2023-03-15T07:43:43;23.40;92.40
45409;DHT22;31162;51.076;3.784;2023-03-15T07:46:08;23.90;91.40
45409;DHT22;31162;51.076;3.784;2023-03-15T07:48:34;24.40;89.80
45409;DHT22;31162;51.076;3.784;2023-03-15T07:51:00;24.70;89.10
45409;DHT22;31162;51.076;3.784;2023-03-15T07:53:26;25.20;86.70
45409;DHT22;31162;51.076;3.784;2023-03-15T07:55:51;25.50;84.80
45409;DHT22;31162;51.076;3.784;2023-03-15T07:58:17;25.90;81.80
45409;DHT22;31162;51.076;3.784;2023-03-15T08:00:43;26.10;81.90
45409;DHT22;31162;51.076;3.784;2023-03-15T08:03:08;26.30;80.80
45409;DHT22;31162;51.076;3.784;2023-03-15T08:05:34;26.60;78.90
45409;DHT22;31162;51.076;3.784;2023-03-15T08:08:00;26.90;78.40
45409;DHT22;31162;51.076;3.784;2023-03-15T08:10:26;26.80;77.60
45409;DHT22;31162;51.076;3.784;2023-03-15T08:12:52;27.10;76.00
45409;DHT22;31162;51.076;3.784;2023-03-15T08:15:18;27.20;76.00
45409;DHT22;31162;51.076;3.784;2023-03-15T08:17:46;27.30;74.60
45409;DHT22;31162;51.076;3.784;2023-03-15T08:20:12;27.20;74.20
45409;DHT22;31162;51.076;3.784;2023-03-15T08:22:48;27.50;74.00
45409;DHT22;31162;51.076;3.784;2023-03-15T08:25:16;27.40;72.40
45409;DHT22;31162;51.076;3.784;2023-03-15T08:27:42;26.60;73.30
45409;DHT22;31162;51.076;3.784;2023-03-15T08:30:10;26.60;73.10
45409;DHT22;31162;51.076;3.784;2023-03-15T08:32:40;25.60;73.30
45409;DHT22;31162;51.076;3.784;2023-03-15T08:35:07;25.70;73.10
45409;DHT22;31162;51.076;3.784;2023-03-15T08:37:33;25.70;72.80
45409;DHT22;31162;51.076;3.784;2023-03-15T08:39:59;25.50;73.00
45409;DHT22;31162;51.076;3.784;2023-03-15T08:42:33;26.20;72.50
45409;DHT22;31162;51.076;3.784;2023-03-15T08:44:59;25.00;73.00
45409;DHT22;31162;51.076;3.784;2023-03-15T08:47:26;22.40;73.80
45409;DHT22;31162;51.076;3.784;2023-03-15T08:49:52;20.20;76.60
45409;DHT22;31162;51.076;3.784;2023-03-15T08:52:18;18.60;79.40
45409;DHT22;31162;51.076;3.784;2023-03-15T08:54:45;16.90;85.10
45409;DHT22;31162;51.076;3.784;2023-03-15T08:57:11;15.70;88.80
45409;DHT22;31162;51.076;3.784;2023-03-15T08:59:37;14.90;91.60
45409;DHT22;31162;51.076;3.784;2023-03-15T09:02:03;14.40;92.10
45409;DHT22;31162;51.076;3.784;2023-03-15T09:04:29;15.80;92.70
45409;DHT22;31162;51.076;3.784;2023-03-15T09:06:55;17.90;85.50
45409;DHT22;31162;51.076;3.784;2023-03-15T09:09:20;17.70;86.30
45409;DHT22;31162;51.076;3.784;2023-03-15T09:11:46;16.80;88.10
45409;DHT22;31162;51.076;3.784;2023-03-15T09:14:12;18.20;87.20
45409;DHT22;31162;51.076;3.784;2023-03-15T09:16:37;20.60;83.40
45409;DHT22;31162;51.076;3.784;2023-03-15T09:19:03;22.00;77.60
45409;DHT22;31162;51.076;3.784;2023-03-15T09:21:29;22.10;77.00
45409;DHT22;31162;51.076;3.784;2023-03-15T09:23:56;22.30;76.00
45409;DHT22;31162;51.076;3.784;2023-03-15T09:26:22;23.60;74.90
45409;DHT22;31162;51.076;3.784;2023-03-15T09:28:48;24.10;72.00
45409;DHT22;31162;51.076;3.784;2023-03-15T09:31:13;24.30;72.10
45409;DHT22;31162;51.076;3.784;2023-03-15T09:33:39;23.90;72.80
45409;DHT22;31162;51.076;3.784;2023-03-15T09:36:05;23.90;74.60
45409;DHT22;31162;51.076;3.784;2023-03-15T09:38:31;24.70;71.80
45409;DHT22;31162;51.076;3.784;2023-03-15T09:40:59;23.60;73.30
45409;DHT22;31162;51.076;3.784;2023-03-15T09:43:58;22.40;72.00
45409;DHT22;31162;51.076;3.784;2023-03-15T09:46:31;20.50;76.30
45409;DHT22;31162;51.076;3.784;2023-03-15T09:51:50;18.10;81.30
45409;DHT22;31162;51.076;3.784;2023-03-15T09:54:43;17.10;84.00
45409;DHT22;31162;51.076;3.784;2023-03-15T09:57:16;16.60;83.80
45409;DHT22;31162;51.076;3.784;2023-03-15T09:59:46;16.10;87.30
45409;DHT22;31162;51.076;3.784;2023-03-15T10:02:24;15.50;89.40
45409;DHT22;31162;51.076;3.784;2023-03-15T10:05:05;15.00;89.70
45409;DHT22;31162;51.076;3.784;2023-03-15T10:07:31;14.80;88.70
45409;DHT22;31162;51.076;3.784;2023-03-15T10:09:57;14.50;90.70
45409;DHT22;31162;51.076;3.784;2023-03-15T10:12:35;14.40;90.20
45409;DHT22;31162;51.076;3.784;2023-03-15T10:15:29;14.10;90.40
45409;DHT22;31162;51.076;3.784;2023-03-15T10:20:37;13.50;91.60
45409;DHT22;31162;51.076;3.784;2023-03-15T10:23:22;13.00;92.50
45409;DHT22;31162;51.076;3.784;2023-03-15T10:25:49;13.00;92.50
45409;DHT22;31162;51.076;3.784;2023-03-15T10:30:51;14.60;92.00
45409;DHT22;31162;51.076;3.784;2023-03-15T10:35:58;18.30;82.10
45409;DHT22;31162;51.076;3.784;2023-03-15T10:38:25;19.50;78.10
45409;DHT22;31162;51.076;3.784;2023-03-15T10:40:56;20.30;78.80
45409;DHT22;31162;51.076;3.784;2023-03-15T10:43:32;21.40;75.50
45409;DHT22;31162;51.076;3.784;2023-03-15T10:46:21;22.00;74.10
45409;DHT22;31162;51.076;3.784;2023-03-15T10:48:59;22.80;70.70
45409;DHT22;31162;51.076;3.784;2023-03-15T10:51:30;23.10;70.10
45409;DHT22;31162;51.076;3.784;2023-03-15T10:56:28;23.70;70.40
45409;DHT22;31162;51.076;3.784;2023-03-15T10:58:56;24.00;71.50
45409;DHT22;31162;51.076;3.784;2023-03-15T11:01:28;24.10;70.20
45409;DHT22;31162;51.076;3.784;2023-03-15T11:04:17;25.00;68.70
45409;DHT22;31162;51.076;3.784;2023-03-15T11:06:59;25.10;65.60
45409;DHT22;31162;51.076;3.784;2023-03-15T11:09:40;24.70;64.80
45409;DHT22;31162;51.076;3.784;2023-03-15T11:12:29;23.10;65.80
45409;DHT22;31162;51.076;3.784;2023-03-15T11:15:12;21.70;64.80
45409;DHT22;31162;51.076;3.784;2023-03-15T11:17:43;20.90;66.20
45409;DHT22;31162;51.076;3.784;2023-03-15T11:20:35;19.00;68.90
45409;DHT22;31162;51.076;3.784;2023-03-15T11:23:20;17.80;68.60
45409;DHT22;31162;51.076;3.784;2023-03-15T11:25:47;17.40;72.60
45409;DHT22;31162;51.076;3.784;2023-03-15T11:28:19;18.30;73.30
45409;DHT22;31162;51.076;3.784;2023-03-15T11:30:46;18.30;72.70
45409;DHT22;31162;51.076;3.784;2023-03-15T11:33:44;18.60;75.10
45409;DHT22;31162;51.076;3.784;2023-03-15T11:36:16;18.80;72.80
45409;DHT22;31162;51.076;3.784;2023-03-15T11:38:44;18.30;74.10
45409;DHT22;31162;51.076;3.784;2023-03-15T11:44:50;18.90;72.40
45409;DHT22;31162;51.076;3.784;2023-03-15T11:46:56;19.40;71.60
45409;DHT22;31162;51.076;3.784;2023-03-15T11:49:32;18.40;72.60
45409;DHT22;31162;51.076;3.784;2023-03-15T11:51:59;17.90;72.90
45409;DHT22;31162;51.076;3.784;2023-03-15T11:54:28;17.80;71.80
45409;DHT22;31162;51.076;3.784;2023-03-15T11:56:56;17.60;72.80
45409;DHT22;31162;51.076;3.784;2023-03-15T11:59:33;17.40;75.00
45409;DHT22;31162;51.076;3.784;2023-03-15T12:04:37;16.70;74.00
45409;DHT22;31162;51.076;3.784;2023-03-15T12:07:36;16.20;75.80
45409;DHT22;31162;51.076;3.784;2023-03-15T12:17:54;15.70;77.20
45409;DHT22;31162;51.076;3.784;2023-03-15T12:20:32;16.30;77.10
45409;DHT22;31162;51.076;3.784;2023-03-15T12:26:09;15.80;74.50
45409;DHT22;31162;51.076;3.784;2023-03-15T12:28:51;15.40;76.60
45409;DHT22;31162;51.076;3.784;2023-03-15T12:31:18;15.20;77.30
45409;DHT22;31162;51.076;3.784;2023-03-15T12:33:51;14.80;80.70
45409;DHT22;31162;51.076;3.784;2023-03-15T12:36:38;14.60;79.10
45409;DHT22;31162;51.076;3.784;2023-03-15T12:41:44;14.60;78.40
45409;DHT22;31162;51.076;3.784;2023-03-15T12:44:40;14.30;78.00
45409;DHT22;31162;51.076;3.784;2023-03-15T12:47:08;14.10;78.80
45409;DHT22;31162;51.076;3.784;2023-03-15T12:49:36;14.10;79.10
45409;DHT22;31162;51.076;3.784;2023-03-15T12:55:14;13.60;80.40
45409;DHT22;31162;51.076;3.784;2023-03-15T12:57:46;13.60;81.90
45409;DHT22;31162;51.076;3.784;2023-03-15T13:00:16;13.50;83.40
45409;DHT22;31162;51.076;3.784;2023-03-15T13:02:49;13.40;81.80
45409;DHT22;31162;51.076;3.784;2023-03-15T13:05:21;13.40;83.80
45409;DHT22;31162;51.076;3.784;2023-03-15T13:10:35;14.00;81.60
45409;DHT22;31162;51.076;3.784;2023-03-15T13:13:06;13.70;82.50
45409;DHT22;31162;51.076;3.784;2023-03-15T13:18:26;13.90;82.00
45409;DHT22;31162;51.076;3.784;2023-03-15T13:21:27;14.00;81.40
45409;DHT22;31162;51.076;3.784;2023-03-15T13:23:57;13.90;81.60
45409;DHT22;31162;51.076;3.784;2023-03-15T13:29:18;14.30;79.90
45409;DHT22;31162;51.076;3.784;2023-03-15T13:34:33;14.20;80.00
45409;DHT22;31162;51.076;3.784;2023-03-15T13:36:59;14.40;82.30
45409;DHT22;31162;51.076;3.784;2023-03-15T13:39:33;14.60;80.70
45409;DHT22;31162;51.076;3.784;2023-03-15T13:42:16;14.60;80.40
45409;DHT22;31162;51.076;3.784;2023-03-15T13:44:42;14.50;80.20
45409;DHT22;31162;51.076;3.784;2023-03-15T13:47:08;14.60;80.50
45409;DHT22;31162;51.076;3.784;2023-03-15T13:49:38;14.70;78.20
45409;DHT22;31162;51.076;3.784;2023-03-15T13:52:05;14.20;81.10
45409;DHT22;31162;51.076;3.784;2023-03-15T13:54:36;13.90;78.80
45409;DHT22;31162;51.076;3.784;2023-03-15T13:57:14;13.50;79.50
45409;DHT22;31162;51.076;3.784;2023-03-15T13:59:46;13.40;80.80
45409;DHT22;31162;51.076;3.784;2023-03-15T14:02:14;12.80;84.10
45409;DHT22;31162;51.076;3.784;2023-03-15T14:04:40;12.40;86.70
45409;DHT22;31162;51.076;3.784;2023-03-15T14:07:34;12.40;87.10
45409;DHT22;31162;51.076;3.784;2023-03-15T14:12:51;12.60;87.00
45409;DHT22;31162;51.076;3.784;2023-03-15T14:15:41;12.40;86.20
45409;DHT22;31162;51.076;3.784;2023-03-15T14:20:39;12.40;87.90
45409;DHT22;31162;51.076;3.784;2023-03-15T14:23:11;12.60;86.90
45409;DHT22;31162;51.076;3.784;2023-03-15T14:25:37;12.60;86.70
45409;DHT22;31162;51.076;3.784;2023-03-15T14:28:04;12.50;86.40
45409;DHT22;31162;51.076;3.784;2023-03-15T14:30:35;12.30;86.10
45409;DHT22;31162;51.076;3.784;2023-03-15T14:33:03;12.30;89.00
45409;DHT22;31162;51.076;3.784;2023-03-15T14:35:40;12.60;88.20
45409;DHT22;31162;51.076;3.784;2023-03-15T14:38:07;12.90;88.80
45409;DHT22;31162;51.076;3.784;2023-03-15T14:40:36;12.70;85.50
45409;DHT22;31162;51.076;3.784;2023-03-15T14:43:05;12.80;87.70
45409;DHT22;31162;51.076;3.784;2023-03-15T14:45:32;12.80;88.10
45409;DHT22;31162;51.076;3.784;2023-03-15T14:48:04;13.20;87.30
45409;DHT22;31162;51.076;3.784;2023-03-15T14:50:35;13.10;84.20
45409;DHT22;31162;51.076;3.784;2023-03-15T14:53:01;12.80;85.80
45409;DHT22;31162;51.076;3.784;2023-03-15T14:55:33;12.80;86.50
45409;DHT22;31162;51.076;3.784;2023-03-15T14:58:03;12.90;86.00
45409;DHT22;31162;51.076;3.784;2023-03-15T15:00:34;12.90;85.40
45409;DHT22;31162;51.076;3.784;2023-03-15T15:02:59;13.10;85.00
45409;DHT22;31162;51.076;3.784;2023-03-15T15:05:30;12.80;84.40
45409;DHT22;31162;51.076;3.784;2023-03-15T15:08:10;12.70;86.80
45409;DHT22;31162;51.076;3.784;2023-03-15T15:10:40;12.60;85.20
45409;DHT22;31162;51.076;3.784;2023-03-15T15:13:16;12.10;85.60
45409;DHT22;31162;51.076;3.784;2023-03-15T15:15:42;12.20;85.40
45409;DHT22;31162;51.076;3.784;2023-03-15T15:18:08;12.20;85.30
45409;DHT22;31162;51.076;3.784;2023-03-15T15:20:34;12.10;87.10
45409;DHT22;31162;51.076;3.784;2023-03-15T15:22:59;12.30;86.00
45409;DHT22;31162;51.076;3.784;2023-03-15T15:25:25;12.50;86.00
45409;DHT22;31162;51.076;3.784;2023-03-15T15:27:54;12.40;85.30
45409;DHT22;31162;51.076;3.784;2023-03-15T15:30:22;12.20;84.50
45409;DHT22;31162;51.076;3.784;2023-03-15T15:32:49;11.90;86.10
45409;DHT22;31162;51.076;3.784;2023-03-15T15:35:18;11.80;89.00
45409;DHT22;31162;51.076;3.784;2023-03-15T15:37:45;12.00;89.10
45409;DHT22;31162;51.076;3.784;2023-03-15T15:40:37;12.20;88.10
45409;DHT22;31162;51.076;3.784;2023-03-15T15:43:01;12.00;90.00
45409;DHT22;31162;51.076;3.784;2023-03-15T15:45:30;12.10;90.00
45409;DHT22;31162;51.076;3.784;2023-03-15T15:47:59;12.20;88.80
45409;DHT22;31162;51.076;3.784;2023-03-15T15:50:31;12.00;90.10
45409;DHT22;31162;51.076;3.784;2023-03-15T15:52:58;12.00;90.70
45409;DHT22;31162;51.076;3.784;2023-03-15T15:55:28;11.90;90.00
45409;DHT22;31162;51.076;3.784;2023-03-15T15:57:55;11.70;90.30
45409;DHT22;31162;51.076;3.784;2023-03-15T16:00:25;11.60;91.00
45409;DHT22;31162;51.076;3.784;2023-03-15T16:02:53;11.70;91.90
45409;DHT22;31162;51.076;3.784;2023-03-15T16:05:23;11.60;91.10
45409;DHT22;31162;51.076;3.784;2023-03-15T16:07:51;11.70;90.90
45409;DHT22;31162;51.076;3.784;2023-03-15T16:10:19;11.70;89.80
45409;DHT22;31162;51.076;3.784;2023-03-15T16:12:46;11.70;90.00
45409;DHT22;31162;51.076;3.784;2023-03-15T16:15:14;11.70;90.20
45409;DHT22;31162;51.076;3.784;2023-03-15T16:17:40;11.60;90.90
45409;DHT22;31162;51.076;3.784;2023-03-15T16:20:07;11.50;90.80
45409;DHT22;31162;51.076;3.784;2023-03-15T16:22:35;11.60;91.50
45409;DHT22;31162;51.076;3.784;2023-03-15T16:25:07;11.60;91.00
45409;DHT22;31162;51.076;3.784;2023-03-15T16:27:33;11.50;90.80
45409;DHT22;31162;51.076;3.784;2023-03-15T16:29:58;11.50;91.40
45409;DHT22;31162;51.076;3.784;2023-03-15T16:32:25;11.50;90.20
45409;DHT22;31162;51.076;3.784;2023-03-15T16:34:52;11.50;91.30
45409;DHT22;31162;51.076;3.784;2023-03-15T16:37:28;11.60;90.40
45409;DHT22;31162;51.076;3.784;2023-03-15T16:39:54;11.50;90.40
45409;DHT22;31162;51.076;3.784;2023-03-15T16:42:20;11.30;90.60
45409;DHT22;31162;51.076;3.784;2023-03-15T16:44:48;11.10;91.00
45409;DHT22;31162;51.076;3.784;2023-03-15T16:47:16;10.90;91.10
45409;DHT22;31162;51.076;3.784;2023-03-15T16:49:42;10.90;91.20